createdAt,value
2022-08-19T00:02:01.147Z,79.68
2022-08-19T00:04:31.900Z,79.65
2022-08-19T00:07:01.875Z,79.61
2022-08-19T00:09:30.935Z,79.76
2022-08-19T00:12:00.044Z,79.53
2022-08-19T00:14:31.259Z,79.49
2022-08-19T00:17:01.568Z,79.36
2022-08-19T00:19:30.376Z,79.88
2022-08-19T00:21:58.906Z,79.92
2022-08-19T00:24:29.746Z,79.60
2022-08-19T00:27:24.840Z,79.67
2022-08-19T00:29:47.044Z,79.82
2022-08-19T00:32:23.099Z,79.71
2022-08-19T00:34:53.814Z,79.64
2022-08-19T00:37:23.712Z,79.68
2022-08-19T00:39:53.195Z,80.01
2022-08-19T00:42:23.070Z,79.88
2022-08-19T00:44:52.397Z,80.40
2022-08-19T00:47:20.902Z,80.03
2022-08-19T00:49:54.210Z,80.21
2022-08-19T00:52:29.928Z,80.41
2022-08-19T00:54:59.671Z,80.23
2022-08-19T00:57:32.909Z,79.89
2022-08-19T01:00:03.967Z,80.00
2022-08-19T01:02:34.431Z,80.02
2022-08-19T01:05:07.685Z,79.71
2022-08-19T01:07:38.263Z,79.90
2022-08-19T01:10:09.666Z,80.01
2022-08-19T01:12:38.769Z,79.93
2022-08-19T01:15:09.435Z,79.76
2022-08-19T01:17:40.797Z,79.91
2022-08-19T01:20:13.414Z,80.12
2022-08-19T01:22:47.433Z,80.25
2022-08-19T01:25:17.042Z,80.00
2022-08-19T01:27:50.051Z,79.88
2022-08-19T01:30:25.425Z,80.16
2022-08-19T01:32:54.798Z,79.93
2022-08-19T01:35:25.368Z,80.03
2022-08-19T01:37:57.103Z,79.95
2022-08-19T01:40:28.597Z,79.92
2022-08-19T01:42:57.472Z,79.84
2022-08-19T01:45:28.630Z,79.80
2022-08-19T01:48:01.619Z,79.72
2022-08-19T01:50:31.815Z,79.73
2022-08-19T01:53:07.858Z,79.94
2022-08-19T01:55:41.030Z,79.82
2022-08-19T01:58:14.641Z,79.75
2022-08-19T02:00:44.113Z,79.53
2022-08-19T02:03:12.576Z,79.41
2022-08-19T02:05:41.242Z,79.67
2022-08-19T02:08:11.282Z,79.33
2022-08-19T02:10:42.697Z,79.53
2022-08-19T02:13:11.128Z,79.24
2022-08-19T02:15:39.978Z,79.62
2022-08-19T02:18:09.427Z,79.10
2022-08-19T02:20:38.791Z,79.60
2022-08-19T02:23:13.947Z,79.77
2022-08-19T02:25:49.023Z,79.59
2022-08-19T02:28:18.948Z,79.51
2022-08-19T02:30:48.725Z,79.69
2022-08-19T02:33:17.406Z,79.89
2022-08-19T02:35:46.630Z,80.05
2022-08-19T02:38:26.658Z,79.72
2022-08-19T02:40:58.463Z,79.54
2022-08-19T02:43:28.535Z,79.61
2022-08-19T02:45:58.080Z,79.59
2022-08-19T02:48:27.769Z,79.38
2022-08-19T02:50:57.008Z,79.56
2022-08-19T02:53:28.236Z,79.59
2022-08-19T02:55:58.131Z,79.47
2022-08-19T02:58:27.669Z,79.34
2022-08-19T03:00:58.261Z,79.33
2022-08-19T03:03:27.092Z,79.38
2022-08-19T03:06:05.914Z,79.42
2022-08-19T03:08:34.162Z,79.37
2022-08-19T03:11:03.950Z,79.13
2022-08-19T03:13:32.299Z,79.31
2022-08-19T03:16:00.738Z,79.22
2022-08-19T03:18:29.180Z,79.01
2022-08-19T03:20:58.257Z,78.95
2022-08-19T03:23:26.563Z,79.19
2022-08-19T03:25:58.334Z,79.11
2022-08-19T03:28:51.530Z,79.31
2022-08-19T03:31:43.351Z,79.34
2022-08-19T03:34:18.325Z,79.27
2022-08-19T03:36:47.099Z,79.52
2022-08-19T03:39:16.097Z,79.42
2022-08-19T03:41:48.443Z,79.26
2022-08-19T03:44:21.839Z,78.89
2022-08-19T03:46:51.937Z,79.31
2022-08-19T03:49:21.489Z,79.30
2022-08-19T03:51:56.783Z,79.28
2022-08-19T03:54:27.591Z,79.11
2022-08-19T03:56:57.792Z,79.23
2022-08-19T03:59:30.860Z,79.11
2022-08-19T04:02:02.270Z,79.38
2022-08-19T04:04:32.018Z,78.94
2022-08-19T04:07:00.856Z,78.96
2022-08-19T04:09:29.209Z,79.16
2022-08-19T04:11:59.986Z,78.84
2022-08-19T04:14:32.155Z,78.90
2022-08-19T04:17:02.279Z,78.86
2022-08-19T04:19:31.882Z,78.77
2022-08-19T04:22:00.762Z,78.83
2022-08-19T04:24:29.284Z,78.81
2022-08-19T04:26:57.547Z,78.90
2022-08-19T04:29:28.053Z,78.95
2022-08-19T04:31:59.616Z,78.92
2022-08-19T04:34:30.658Z,78.96
2022-08-19T04:37:00.274Z,78.84
2022-08-19T04:39:44.848Z,79.15
2022-08-19T04:42:31.133Z,79.08
2022-08-19T04:45:00.675Z,79.09
2022-08-19T04:47:49.435Z,79.04
2022-08-19T04:50:23.617Z,79.28
2022-08-19T04:52:54.438Z,79.05
2022-08-19T04:55:22.944Z,79.16
2022-08-19T04:57:51.763Z,79.21
2022-08-19T05:00:20.087Z,79.26
2022-08-19T05:02:50.384Z,79.10
2022-08-19T05:05:19.006Z,79.42
2022-08-19T05:07:47.237Z,79.46
2022-08-19T05:10:15.518Z,79.56
2022-08-19T05:12:43.776Z,79.96
2022-08-19T05:15:12.714Z,79.98
2022-08-19T05:18:01.344Z,80.07
2022-08-19T05:20:48.592Z,80.34
2022-08-19T05:23:21.851Z,80.50
2022-08-19T05:25:51.403Z,80.46
2022-08-19T05:28:20.573Z,80.60
2022-08-19T05:30:49.176Z,80.60
2022-08-19T05:33:17.384Z,80.65
2022-08-19T05:35:47.378Z,80.44
2022-08-19T05:38:15.819Z,80.76
2022-08-19T05:40:47.047Z,80.86
2022-08-19T05:43:17.614Z,80.71
2022-08-19T05:45:46.307Z,80.87
2022-08-19T05:48:21.510Z,80.72
2022-08-19T05:50:51.959Z,80.97
2022-08-19T05:53:20.759Z,81.46
2022-08-19T05:55:48.989Z,81.35
2022-08-19T05:58:18.333Z,81.42
2022-08-19T06:00:53.673Z,81.51
2022-08-19T06:03:22.251Z,81.22
2022-08-19T06:05:52.333Z,81.28
2022-08-19T06:08:34.448Z,81.50
2022-08-19T06:11:17.370Z,82.01
2022-08-19T06:13:48.242Z,81.69
2022-08-19T06:16:20.667Z,81.84
2022-08-19T06:18:49.461Z,81.50
2022-08-19T06:21:19.837Z,81.77
2022-08-19T06:23:48.404Z,81.73
2022-08-19T06:26:18.364Z,81.67
2022-08-19T06:28:47.616Z,81.68
2022-08-19T06:31:17.239Z,82.00
2022-08-19T06:33:47.110Z,81.98
2022-08-19T06:36:21.617Z,82.23
2022-08-19T06:38:53.478Z,82.04
2022-08-19T06:41:22.158Z,82.07
2022-08-19T06:43:54.065Z,82.35
2022-08-19T06:46:24.848Z,82.01
2022-08-19T06:48:54.451Z,81.82
2022-08-19T06:51:25.335Z,81.78
2022-08-19T06:53:57.888Z,81.78
2022-08-19T06:56:34.768Z,82.07
2022-08-19T06:59:04.715Z,81.84
2022-08-19T07:01:36.487Z,81.98
2022-08-19T07:04:05.442Z,81.80
2022-08-19T07:06:44.189Z,82.01
2022-08-19T07:09:18.396Z,81.97
2022-08-19T07:11:50.293Z,81.85
2022-08-19T07:14:21.239Z,82.16
2022-08-19T07:16:51.536Z,82.30
2022-08-19T07:19:20.945Z,82.35
2022-08-19T07:21:53.835Z,82.57
2022-08-19T07:24:25.601Z,82.26
2022-08-19T07:26:55.765Z,82.14
2022-08-19T07:29:28.388Z,82.09
2022-08-19T07:32:00.090Z,81.95
2022-08-19T07:34:30.180Z,82.09
2022-08-19T07:37:01.139Z,81.81
2022-08-19T07:39:31.279Z,81.70
2022-08-19T07:42:01.717Z,81.58
2022-08-19T07:44:30.501Z,81.16
2022-08-19T07:47:01.243Z,81.15
2022-08-19T07:49:29.759Z,81.08
2022-08-19T07:52:03.269Z,80.91
2022-08-19T07:54:35.518Z,80.47
2022-08-19T07:57:03.892Z,80.64
2022-08-19T07:59:33.035Z,80.66
2022-08-19T08:02:02.104Z,80.51
2022-08-19T08:04:49.915Z,80.13
2022-08-19T08:07:36.901Z,79.85
2022-08-19T08:10:20.709Z,79.72
2022-08-19T08:13:08.757Z,79.46
2022-08-19T08:15:43.045Z,78.92
2022-08-19T08:18:13.085Z,78.29
2022-08-19T08:20:43.990Z,78.54
2022-08-19T08:23:27.418Z,78.47
2022-08-19T08:25:58.087Z,78.37
2022-08-19T08:28:30.754Z,77.83
2022-08-19T08:31:00.178Z,77.93
2022-08-19T08:33:33.711Z,78.50
2022-08-19T08:36:03.942Z,78.07
2022-08-19T08:38:39.732Z,77.61
2022-08-19T08:41:20.549Z,78.12
2022-08-19T08:43:53.190Z,78.04
2022-08-19T08:46:30.380Z,78.39
2022-08-19T08:49:08.451Z,78.45
2022-08-19T08:54:22.618Z,78.14
2022-08-19T08:56:53.740Z,78.00
2022-08-19T08:59:28.651Z,77.80
2022-08-19T09:01:57.903Z,78.05
2022-08-19T09:04:26.363Z,77.42
2022-08-19T09:07:18.703Z,77.23
2022-08-19T09:10:04.484Z,77.87
2022-08-19T09:12:44.398Z,77.80
2022-08-19T09:15:17.266Z,77.47
2022-08-19T09:17:45.872Z,77.02
2022-08-19T09:20:22.565Z,76.46
2022-08-19T09:22:51.733Z,76.38
2022-08-19T09:25:27.175Z,76.44
2022-08-19T09:28:02.399Z,76.58
2022-08-19T09:30:35.068Z,76.72
2022-08-19T09:33:03.521Z,76.61
2022-08-19T09:35:32.642Z,76.56
2022-08-19T09:38:19.345Z,76.77
2022-08-19T09:40:50.137Z,75.67
2022-08-19T09:43:33.096Z,75.72
2022-08-19T09:46:02.797Z,75.97
2022-08-19T09:48:31.151Z,75.30
2022-08-19T09:51:05.756Z,73.06
2022-08-19T09:53:34.161Z,71.98
2022-08-19T09:56:04.315Z,71.10
2022-08-19T09:58:33.974Z,70.31
2022-08-19T10:01:04.137Z,68.80
2022-08-19T10:03:34.723Z,68.03
2022-08-19T10:06:05.977Z,67.45
2022-08-19T10:08:49.973Z,67.74
2022-08-19T10:11:27.859Z,68.09
2022-08-19T10:14:06.872Z,69.13
2022-08-19T10:16:39.549Z,67.19
2022-08-19T10:19:08.362Z,64.65
2022-08-19T10:21:36.959Z,64.13
2022-08-19T10:24:09.518Z,64.52
2022-08-19T10:26:43.050Z,64.55
2022-08-19T10:29:12.804Z,64.82
2022-08-19T10:31:58.795Z,65.08
2022-08-19T10:34:29.642Z,65.20
2022-08-19T10:37:01.258Z,65.27
2022-08-19T10:39:31.353Z,65.46
2022-08-19T10:42:02.286Z,64.14
2022-08-19T10:44:32.130Z,65.50
2022-08-19T10:47:01.348Z,65.28
2022-08-19T10:49:29.608Z,65.45
2022-08-19T10:52:18.765Z,65.28
2022-08-19T10:55:08.511Z,65.25
2022-08-19T10:58:01.361Z,64.83
2022-08-19T11:00:27.872Z,64.23
2022-08-19T11:02:56.902Z,64.38
2022-08-19T11:05:25.369Z,63.24
2022-08-19T11:07:53.795Z,63.63
2022-08-19T11:10:23.051Z,64.44
2022-08-19T11:12:58.733Z,62.61
2022-08-19T11:15:35.974Z,60.77
2022-08-19T11:18:27.152Z,58.94
2022-08-19T11:21:14.340Z,57.26
2022-08-19T11:23:49.020Z,58.11
2022-08-19T11:26:32.310Z,55.62
2022-08-19T11:29:10.837Z,56.71
2022-08-19T11:31:50.202Z,56.14
2022-08-19T11:34:39.266Z,58.01
2022-08-19T11:37:11.151Z,56.12
2022-08-19T11:39:53.213Z,55.56
2022-08-19T11:42:44.103Z,52.33
2022-08-19T11:45:19.611Z,52.04
2022-08-19T11:47:48.615Z,52.19
2022-08-19T11:50:17.313Z,52.23
2022-08-19T11:52:46.306Z,52.27
2022-08-19T11:55:15.678Z,52.12
2022-08-19T11:57:45.821Z,52.38
2022-08-19T12:00:16.667Z,50.75
2022-08-19T12:02:45.002Z,49.89
2022-08-19T12:05:13.389Z,48.14
2022-08-19T12:07:44.821Z,49.36
2022-08-19T12:10:13.250Z,49.39
2022-08-19T12:12:43.719Z,48.87
2022-08-19T12:15:13.210Z,47.93
2022-08-19T12:17:43.796Z,48.14
2022-08-19T12:20:14.329Z,47.73
2022-08-19T12:22:43.267Z,46.93
2022-08-19T12:25:13.284Z,47.97
2022-08-19T12:27:42.853Z,48.03
2022-08-19T12:30:15.984Z,49.74
2022-08-19T12:32:45.979Z,50.45
2022-08-19T12:35:14.348Z,47.49
2022-08-19T12:37:45.376Z,47.32
2022-08-19T12:40:26.186Z,47.25
2022-08-19T12:42:55.237Z,47.52
2022-08-19T12:45:23.798Z,47.76
2022-08-19T12:47:54.940Z,47.53
2022-08-19T12:50:23.979Z,46.17
2022-08-19T12:52:52.495Z,47.54
2022-08-19T12:55:21.040Z,47.23
2022-08-19T12:57:49.642Z,44.92
2022-08-19T13:00:21.844Z,43.91
2022-08-19T13:02:55.864Z,43.46
2022-08-19T13:05:28.155Z,44.44
2022-08-19T13:07:58.038Z,43.07
2022-08-19T13:10:29.308Z,43.63
2022-08-19T13:13:00.591Z,43.96
2022-08-19T13:15:29.598Z,43.85
2022-08-19T13:18:00.055Z,43.61
2022-08-19T13:20:28.506Z,42.39
2022-08-19T13:22:58.274Z,43.11
2022-08-19T13:25:27.693Z,42.72
2022-08-19T13:27:56.210Z,41.80
2022-08-19T13:30:42.770Z,41.54
2022-08-19T13:33:16.662Z,41.25
2022-08-19T13:35:49.611Z,40.53
2022-08-19T13:38:19.705Z,38.86
2022-08-19T13:40:48.518Z,39.12
2022-08-19T13:43:23.318Z,39.94
2022-08-19T13:45:54.912Z,40.83
2022-08-19T13:48:26.295Z,39.94
2022-08-19T13:50:55.280Z,41.23
2022-08-19T13:53:24.181Z,42.20
2022-08-19T13:55:54.691Z,41.52
2022-08-19T13:58:23.329Z,41.12
2022-08-19T14:00:51.586Z,41.10
2022-08-19T14:03:20.139Z,40.29
2022-08-19T14:05:49.851Z,41.40
2022-08-19T14:08:18.189Z,43.21
2022-08-19T14:10:46.590Z,42.70
2022-08-19T14:13:17.441Z,42.39
2022-08-19T14:15:46.271Z,43.02
2022-08-19T14:18:14.486Z,43.55
2022-08-19T14:20:43.800Z,42.59
2022-08-19T14:23:14.834Z,42.16
2022-08-19T14:25:43.550Z,42.45
2022-08-19T14:28:11.978Z,43.26
2022-08-19T14:30:40.569Z,43.13
2022-08-19T14:33:09.867Z,42.62
2022-08-19T14:35:38.920Z,43.21
2022-08-19T14:38:08.316Z,42.92
2022-08-19T14:40:38.020Z,43.39
2022-08-19T14:43:06.564Z,44.47
2022-08-19T14:45:37.448Z,43.87
2022-08-19T14:48:05.820Z,45.70
2022-08-19T14:50:35.022Z,45.27
2022-08-19T14:53:11.190Z,44.90
2022-08-19T14:55:45.601Z,44.21
2022-08-19T14:58:29.312Z,44.27
2022-08-19T15:01:00.997Z,44.86
2022-08-19T15:03:30.277Z,44.22
2022-08-19T15:05:59.043Z,44.32
2022-08-19T15:08:29.561Z,45.71
2022-08-19T15:11:00.326Z,46.74
2022-08-19T15:13:31.175Z,45.72
2022-08-19T15:15:59.636Z,45.59
2022-08-19T15:18:28.241Z,45.47
2022-08-19T15:20:57.875Z,46.39
2022-08-19T15:23:26.168Z,44.70
2022-08-19T15:25:56.529Z,44.66
2022-08-19T15:28:28.346Z,44.33
2022-08-19T15:30:56.570Z,45.80
2022-08-19T15:33:25.004Z,46.42
2022-08-19T15:35:54.479Z,46.39
2022-08-19T15:38:23.872Z,45.88
2022-08-19T15:40:52.650Z,45.74
2022-08-19T15:43:22.924Z,44.52
2022-08-19T15:45:52.927Z,45.48
2022-08-19T15:48:21.199Z,45.51
2022-08-19T15:50:49.444Z,45.41
2022-08-19T15:53:17.787Z,44.95
2022-08-19T15:55:48.622Z,45.09
2022-08-19T15:58:34.511Z,46.71
2022-08-19T16:01:23.880Z,45.83
2022-08-19T16:04:14.717Z,46.14
2022-08-19T16:06:46.438Z,47.54
2022-08-19T16:09:15.611Z,47.28
2022-08-19T16:11:46.379Z,47.42
2022-08-19T16:14:15.672Z,46.84
2022-08-19T16:16:47.773Z,46.87
2022-08-19T16:19:18.532Z,47.43
2022-08-19T16:21:49.533Z,47.01
2022-08-19T16:24:20.589Z,47.42
2022-08-19T16:26:49.320Z,47.04
2022-08-19T16:29:27.738Z,48.00
2022-08-19T16:32:06.667Z,47.23
2022-08-19T16:34:35.250Z,47.97
2022-08-19T16:37:03.520Z,48.60
2022-08-19T16:39:32.095Z,47.95
2022-08-19T16:42:01.133Z,47.60
2022-08-19T16:44:30.137Z,47.90
2022-08-19T16:46:59.788Z,48.40
2022-08-19T16:49:52.848Z,49.11
2022-08-19T16:52:21.035Z,48.74
2022-08-19T16:54:49.894Z,48.11
2022-08-19T16:57:19.552Z,49.06
2022-08-19T16:59:49.545Z,49.31
2022-08-19T17:02:19.015Z,49.25
2022-08-19T17:04:58.339Z,49.20
2022-08-19T17:07:28.037Z,49.08
2022-08-19T17:09:57.038Z,49.43
2022-08-19T17:12:31.533Z,49.71
2022-08-19T17:15:01.684Z,49.49
2022-08-19T17:17:30.441Z,48.95
2022-08-19T17:20:00.730Z,49.51
2022-08-19T17:22:29.849Z,49.82
2022-08-19T17:24:58.706Z,50.55
2022-08-19T17:27:31.429Z,50.56
2022-08-19T17:30:02.634Z,50.59
2022-08-19T17:32:33.408Z,50.94
2022-08-19T17:35:04.813Z,50.69
2022-08-19T17:37:35.016Z,50.96
2022-08-19T17:40:04.003Z,51.66
2022-08-19T17:42:32.416Z,51.68
2022-08-19T17:45:00.716Z,51.65
2022-08-19T17:47:31.318Z,51.73
2022-08-19T17:50:00.305Z,51.52
2022-08-19T17:52:30.331Z,51.52
2022-08-19T17:54:58.646Z,51.56
2022-08-19T17:57:26.975Z,51.22
2022-08-19T17:59:55.441Z,51.18
2022-08-19T18:02:25.523Z,50.98
2022-08-19T18:04:54.368Z,51.55
2022-08-19T18:07:22.758Z,51.97
2022-08-19T18:09:54.907Z,52.17
2022-08-19T18:12:26.764Z,52.46
2022-08-19T18:14:56.241Z,52.13
2022-08-19T18:17:26.078Z,52.10
2022-08-19T18:19:54.420Z,52.27
2022-08-19T18:22:26.926Z,52.70
2022-08-19T18:24:57.884Z,52.98
2022-08-19T18:27:27.872Z,53.22
2022-08-19T18:29:59.590Z,53.47
2022-08-19T18:32:28.729Z,53.90
2022-08-19T18:34:57.327Z,53.74
2022-08-19T18:37:27.273Z,54.37
2022-08-19T18:40:14.642Z,54.43
2022-08-19T18:43:02.108Z,54.66
2022-08-19T18:45:47.864Z,54.93
2022-08-19T18:48:33.519Z,55.40
2022-08-19T18:51:03.444Z,55.48
2022-08-19T18:53:35.165Z,55.93
2022-08-19T18:56:05.622Z,56.00
2022-08-19T18:58:35.029Z,56.30
2022-08-19T19:01:11.000Z,56.33
2022-08-19T19:03:42.581Z,56.73
2022-08-19T19:06:11.014Z,57.03
2022-08-19T19:08:41.002Z,57.09
2022-08-19T19:11:11.641Z,57.50
2022-08-19T19:13:41.075Z,57.84
2022-08-19T19:16:11.677Z,57.69
2022-08-19T19:18:40.130Z,58.06
2022-08-19T19:21:09.465Z,58.43
2022-08-19T19:23:40.715Z,58.56
2022-08-19T19:26:10.931Z,58.97
2022-08-19T19:28:43.867Z,59.09
2022-08-19T19:31:14.133Z,59.35
2022-08-19T19:33:43.648Z,59.55
2022-08-19T19:36:14.039Z,59.65
2022-08-19T19:38:48.326Z,59.78
2022-08-19T19:41:19.627Z,60.34
2022-08-19T19:44:04.533Z,60.29
2022-08-19T19:46:38.623Z,60.81
2022-08-19T19:49:08.290Z,61.22
2022-08-19T19:51:38.647Z,61.20
2022-08-19T19:54:07.877Z,61.58
2022-08-19T19:56:36.693Z,61.51
2022-08-19T19:59:06.417Z,61.55
2022-08-19T20:01:35.274Z,61.79
2022-08-19T20:04:04.305Z,62.19
2022-08-19T20:06:34.359Z,62.63
2022-08-19T20:09:11.072Z,62.69
2022-08-19T20:11:44.022Z,62.74
2022-08-19T20:14:17.271Z,63.14
2022-08-19T20:16:47.372Z,63.10
2022-08-19T20:19:18.484Z,63.17
2022-08-19T20:21:51.338Z,63.42
2022-08-19T20:24:24.079Z,63.68
2022-08-19T20:26:53.438Z,63.72
2022-08-19T20:29:39.468Z,64.00
2022-08-19T20:32:11.302Z,64.13
2022-08-19T20:34:41.069Z,64.38
2022-08-19T20:37:10.028Z,64.26
2022-08-19T20:39:38.646Z,64.38
2022-08-19T20:42:07.190Z,64.76
2022-08-19T20:44:37.863Z,64.89
2022-08-19T20:47:06.961Z,64.64
2022-08-19T20:49:35.446Z,64.91
2022-08-19T20:52:05.130Z,65.00
2022-08-19T20:54:34.372Z,65.15
2022-08-19T20:57:03.877Z,65.09
2022-08-19T20:59:32.486Z,65.41
2022-08-19T21:02:02.192Z,65.14
2022-08-19T21:04:30.685Z,65.12
2022-08-19T21:06:58.974Z,65.34
2022-08-19T21:09:28.007Z,65.55
2022-08-19T21:11:57.706Z,65.44
2022-08-19T21:14:26.976Z,65.71
2022-08-19T21:16:55.481Z,65.77
2022-08-19T21:19:25.043Z,65.80
2022-08-19T21:21:54.324Z,66.19
2022-08-19T21:24:26.400Z,65.98
2022-08-19T21:27:00.491Z,66.02
2022-08-19T21:29:28.703Z,65.99
2022-08-19T21:31:56.824Z,66.03
2022-08-19T21:34:26.665Z,66.28
2022-08-19T21:36:54.801Z,66.27
2022-08-19T21:39:23.011Z,66.41
2022-08-19T21:41:51.286Z,66.50
2022-08-19T21:44:19.418Z,66.49
2022-08-19T21:46:50.444Z,66.44
2022-08-19T21:49:19.880Z,66.73
2022-08-19T21:51:49.852Z,66.71
2022-08-19T21:54:18.089Z,66.95
2022-08-19T21:56:47.164Z,66.88
2022-08-19T21:59:17.002Z,66.85
2022-08-19T22:01:50.498Z,67.40
2022-08-19T22:04:22.952Z,67.03
2022-08-19T22:06:55.403Z,66.89
2022-08-19T22:09:23.728Z,67.12
2022-08-19T22:11:52.232Z,67.01
2022-08-19T22:14:20.512Z,67.14
2022-08-19T22:16:48.765Z,67.19
2022-08-19T22:19:17.003Z,67.16
2022-08-19T22:21:45.319Z,67.27
2022-08-19T22:24:15.082Z,67.17
2022-08-19T22:26:43.881Z,67.35
2022-08-19T22:29:13.293Z,67.11
2022-08-19T22:31:45.986Z,67.14
2022-08-19T22:34:23.323Z,67.30
2022-08-19T22:36:51.637Z,67.32
2022-08-19T22:39:21.235Z,67.46
2022-08-19T22:41:49.553Z,67.41
2022-08-19T22:44:17.911Z,67.26
2022-08-19T22:46:46.226Z,67.43
2022-08-19T22:49:14.824Z,67.25
2022-08-19T22:52:00.570Z,67.58
2022-08-19T22:54:30.399Z,67.89
2022-08-19T22:56:58.650Z,67.79
2022-08-19T22:59:27.180Z,68.08
2022-08-19T23:01:55.486Z,68.24
2022-08-19T23:04:24.357Z,67.91
2022-08-19T23:06:52.762Z,67.87
2022-08-19T23:09:23.422Z,67.91
2022-08-19T23:11:53.994Z,67.79
2022-08-19T23:14:22.277Z,67.97
2022-08-19T23:16:51.489Z,67.87
2022-08-19T23:19:22.846Z,67.93
2022-08-19T23:21:52.718Z,68.30
2022-08-19T23:24:21.424Z,67.96
2022-08-19T23:27:07.495Z,68.10
2022-08-19T23:29:54.516Z,68.30
2022-08-19T23:32:25.603Z,68.47
2022-08-19T23:34:56.786Z,68.49
2022-08-19T23:37:25.630Z,68.47
2022-08-19T23:39:53.928Z,68.48
2022-08-19T23:42:22.220Z,68.19
2022-08-19T23:44:52.958Z,68.02
2022-08-19T23:47:22.334Z,68.25
2022-08-19T23:49:50.933Z,68.59
2022-08-19T23:52:19.397Z,67.93
2022-08-19T23:54:47.963Z,68.38
2022-08-19T23:57:16.645Z,68.43
2022-08-19T23:59:45.935Z,68.21
